createdAt,value
2023-05-30T00:02:22.273Z,100.00
2023-05-30T00:04:49.028Z,100.00
2023-05-30T00:07:16.174Z,100.00
2023-05-30T00:09:42.944Z,100.00
2023-05-30T00:12:09.864Z,100.00
2023-05-30T00:14:38.159Z,100.00
2023-05-30T00:17:06.398Z,100.00
2023-05-30T00:19:33.148Z,100.00
2023-05-30T00:21:59.852Z,100.00
2023-05-30T00:24:27.066Z,100.00
2023-05-30T00:26:53.750Z,100.00
2023-05-30T00:29:20.760Z,100.00
2023-05-30T00:31:47.577Z,100.00
2023-05-30T00:34:14.365Z,100.00
2023-05-30T00:36:41.000Z,100.00
2023-05-30T00:39:08.174Z,100.00
2023-05-30T00:41:34.843Z,100.00
2023-05-30T00:44:01.643Z,100.00
2023-05-30T00:46:30.894Z,100.00
2023-05-30T00:49:00.792Z,100.00
2023-05-30T00:51:31.068Z,100.00
2023-05-30T00:53:59.204Z,100.00
2023-05-30T00:56:27.662Z,100.00
2023-05-30T00:58:54.472Z,100.00
2023-05-30T01:01:21.960Z,100.00
2023-05-30T01:03:49.279Z,100.00
2023-05-30T01:06:16.342Z,100.00
2023-05-30T01:08:42.969Z,100.00
2023-05-30T01:11:18.616Z,100.00
2023-05-30T01:13:59.791Z,100.00
2023-05-30T01:16:32.949Z,100.00
2023-05-30T01:19:25.366Z,100.00
2023-05-30T01:22:00.921Z,100.00
2023-05-30T01:24:42.386Z,100.00
2023-05-30T01:27:16.491Z,100.00
2023-05-30T01:29:44.076Z,100.00
2023-05-30T01:32:11.063Z,100.00
2023-05-30T01:34:38.585Z,100.00
2023-05-30T01:37:05.644Z,100.00
2023-05-30T01:39:32.288Z,100.00
2023-05-30T01:42:09.626Z,100.00
2023-05-30T01:45:15.053Z,100.00
2023-05-30T01:47:59.150Z,100.00
2023-05-30T01:50:33.318Z,100.00
2023-05-30T01:53:01.040Z,100.00
2023-05-30T01:55:31.888Z,100.00
2023-05-30T01:57:59.447Z,100.00
2023-05-30T02:00:26.979Z,100.00
2023-05-30T02:02:54.018Z,100.00
2023-05-30T02:05:20.777Z,100.00
2023-05-30T02:07:47.456Z,100.00
2023-05-30T02:10:14.194Z,100.00
2023-05-30T02:12:43.300Z,100.00
2023-05-30T02:15:10.345Z,100.00
2023-05-30T02:17:37.545Z,100.00
2023-05-30T02:20:04.613Z,100.00
2023-05-30T02:22:31.326Z,100.00
2023-05-30T02:25:00.459Z,100.00
2023-05-30T02:27:27.130Z,100.00
2023-05-30T02:29:53.890Z,100.00
2023-05-30T02:32:20.682Z,100.00
2023-05-30T02:34:47.493Z,100.00
2023-05-30T02:37:14.130Z,100.00
2023-05-30T02:39:40.895Z,100.00
2023-05-30T02:42:08.229Z,100.00
2023-05-30T02:44:34.938Z,100.00
2023-05-30T02:47:01.696Z,100.00
2023-05-30T02:49:28.705Z,100.00
2023-05-30T02:51:55.935Z,100.00
2023-05-30T02:54:22.578Z,100.00
2023-05-30T02:56:49.174Z,100.00
2023-05-30T02:59:16.145Z,100.00
2023-05-30T03:01:42.876Z,100.00
2023-05-30T03:04:09.520Z,100.00
2023-05-30T03:06:37.287Z,100.00
2023-05-30T03:09:05.047Z,100.00
2023-05-30T03:11:31.650Z,100.00
2023-05-30T03:13:58.364Z,100.00
2023-05-30T03:16:25.055Z,100.00
2023-05-30T03:18:51.893Z,100.00
2023-05-30T03:21:18.609Z,100.00
2023-05-30T03:23:45.293Z,100.00
2023-05-30T03:26:11.914Z,100.00
2023-05-30T03:28:38.594Z,100.00
2023-05-30T03:31:07.850Z,100.00
2023-05-30T03:33:34.633Z,100.00
2023-05-30T03:36:01.664Z,100.00
2023-05-30T03:38:28.287Z,100.00
2023-05-30T03:40:55.087Z,100.00
2023-05-30T03:43:36.934Z,100.00
2023-05-30T03:46:03.706Z,100.00
2023-05-30T03:48:30.429Z,100.00
2023-05-30T03:50:57.337Z,100.00
2023-05-30T03:53:24.186Z,100.00
2023-05-30T03:55:51.111Z,100.00
2023-05-30T03:58:17.727Z,100.00
2023-05-30T04:00:44.424Z,100.00
2023-05-30T04:03:11.490Z,100.00
2023-05-30T04:05:38.159Z,100.00
2023-05-30T04:08:18.859Z,100.00
2023-05-30T04:10:46.030Z,100.00
2023-05-30T04:13:37.044Z,100.00
2023-05-30T04:16:14.067Z,100.00
2023-05-30T04:18:45.922Z,100.00
2023-05-30T04:21:16.062Z,100.00
2023-05-30T04:24:25.895Z,100.00
2023-05-30T04:29:48.880Z,100.00
2023-05-30T04:32:18.486Z,100.00
2023-05-30T04:34:50.552Z,100.00
2023-05-30T04:37:19.385Z,100.00
2023-05-30T04:39:46.259Z,100.00
2023-05-30T04:42:19.039Z,100.00
2023-05-30T04:44:52.330Z,100.00
2023-05-30T04:47:19.053Z,100.00
2023-05-30T04:49:46.924Z,100.00
2023-05-30T04:52:13.783Z,100.00
2023-05-30T04:54:41.022Z,100.00
2023-05-30T04:57:07.856Z,100.00
2023-05-30T04:59:34.779Z,100.00
2023-05-30T05:02:01.633Z,100.00
2023-05-30T05:04:28.293Z,100.00
2023-05-30T05:06:54.945Z,100.00
2023-05-30T05:09:23.517Z,100.00
2023-05-30T05:11:50.163Z,100.00
2023-05-30T05:14:16.873Z,100.00
2023-05-30T05:16:43.641Z,100.00
2023-05-30T05:19:10.288Z,100.00
2023-05-30T05:21:38.075Z,100.00
2023-05-30T05:24:05.139Z,100.00
2023-05-30T05:26:31.708Z,100.00
2023-05-30T05:28:58.322Z,100.00
2023-05-30T05:31:25.984Z,100.00
2023-05-30T05:33:55.105Z,100.00
2023-05-30T05:36:22.912Z,100.00
2023-05-30T05:38:49.639Z,100.00
2023-05-30T05:41:17.116Z,100.00
2023-05-30T05:43:43.796Z,100.00
2023-05-30T05:46:12.927Z,100.00
2023-05-30T05:48:39.591Z,100.00
2023-05-30T05:51:06.255Z,100.00
2023-05-30T05:53:32.896Z,100.00
2023-05-30T05:58:29.701Z,64.52
2023-05-30T06:00:56.739Z,64.36
2023-05-30T06:03:23.782Z,64.05
2023-05-30T06:05:50.571Z,64.34
2023-05-30T06:08:17.333Z,64.13
2023-05-30T06:10:44.141Z,63.98
2023-05-30T06:13:10.807Z,64.00
2023-05-30T06:15:37.492Z,63.50
2023-05-30T06:18:04.981Z,63.52
2023-05-30T06:20:31.711Z,63.77
2023-05-30T06:22:58.425Z,63.10
2023-05-30T06:25:27.267Z,63.00
2023-05-30T06:27:53.967Z,63.43
2023-05-30T06:30:20.785Z,63.50
2023-05-30T06:32:47.481Z,63.17
2023-05-30T06:35:14.200Z,62.98
2023-05-30T06:37:40.938Z,62.82
2023-05-30T06:40:08.499Z,62.24
2023-05-30T06:42:36.057Z,61.07
2023-05-30T06:45:02.716Z,60.93
2023-05-30T06:47:29.404Z,60.12
2023-05-30T06:49:56.362Z,59.24
2023-05-30T06:52:23.200Z,58.96
2023-05-30T06:54:49.823Z,59.30
2023-05-30T06:57:16.504Z,58.80
2023-05-30T06:59:43.339Z,58.88
2023-05-30T07:02:11.352Z,58.76
2023-05-30T07:04:38.198Z,59.14
2023-05-30T07:07:05.510Z,58.49
2023-05-30T07:09:34.983Z,59.38
2023-05-30T07:12:02.056Z,59.09
2023-05-30T07:14:28.790Z,58.63
2023-05-30T07:16:55.570Z,58.38
2023-05-30T07:19:22.263Z,58.38
2023-05-30T07:21:49.224Z,57.76
2023-05-30T07:24:15.919Z,56.88
2023-05-30T07:26:42.589Z,56.62
2023-05-30T07:29:09.382Z,56.51
2023-05-30T07:31:36.128Z,56.28
2023-05-30T07:34:02.901Z,55.88
2023-05-30T07:36:29.604Z,55.39
2023-05-30T07:38:56.302Z,55.17
2023-05-30T07:41:27.813Z,55.13
2023-05-30T07:43:57.371Z,54.71
2023-05-30T07:46:24.414Z,55.17
2023-05-30T07:48:51.164Z,54.45
2023-05-30T07:51:18.909Z,54.44
2023-05-30T07:53:47.418Z,53.77
2023-05-30T07:56:16.808Z,53.51
2023-05-30T07:58:46.710Z,53.38
2023-05-30T08:01:15.883Z,53.36
2023-05-30T08:03:42.762Z,53.22
2023-05-30T08:06:09.482Z,52.82
2023-05-30T08:08:36.482Z,52.65
2023-05-30T08:11:03.206Z,52.57
2023-05-30T08:13:32.836Z,52.21
2023-05-30T08:16:03.649Z,52.17
2023-05-30T08:18:33.186Z,51.54
2023-05-30T08:21:03.733Z,51.11
2023-05-30T08:23:38.312Z,50.39
2023-05-30T08:26:10.229Z,50.13
2023-05-30T08:28:38.202Z,49.13
2023-05-30T08:31:08.971Z,47.99
2023-05-30T08:33:37.700Z,47.74
2023-05-30T08:36:04.431Z,45.46
2023-05-30T08:38:35.656Z,45.30
2023-05-30T08:41:02.370Z,45.59
2023-05-30T08:43:29.187Z,44.91
2023-05-30T08:45:56.749Z,44.45
2023-05-30T08:48:27.396Z,44.46
2023-05-30T08:50:54.246Z,43.32
2023-05-30T08:53:31.685Z,43.70
2023-05-30T08:56:29.575Z,43.31
2023-05-30T08:58:59.588Z,43.50
2023-05-30T09:01:28.458Z,42.88
2023-05-30T09:03:57.378Z,42.77
2023-05-30T09:06:27.028Z,43.04
2023-05-30T09:08:55.375Z,43.40
2023-05-30T09:11:24.647Z,42.30
2023-05-30T09:13:54.353Z,42.06
2023-05-30T09:16:21.098Z,42.24
2023-05-30T09:18:47.765Z,41.76
2023-05-30T09:21:16.801Z,41.82
2023-05-30T09:23:43.712Z,41.08
2023-05-30T09:26:15.341Z,41.61
2023-05-30T09:28:49.244Z,41.34
2023-05-30T09:31:17.344Z,41.04
2023-05-30T09:33:50.425Z,40.69
2023-05-30T09:36:21.171Z,40.35
2023-05-30T09:38:59.774Z,40.40
2023-05-30T09:41:28.104Z,40.93
2023-05-30T09:43:55.661Z,41.45
2023-05-30T09:46:25.150Z,40.50
2023-05-30T09:48:52.583Z,40.32
2023-05-30T09:51:21.321Z,40.10
2023-05-30T09:54:05.570Z,40.20
2023-05-30T09:56:39.363Z,40.03
2023-05-30T09:59:11.484Z,39.64
2023-05-30T10:01:38.634Z,39.58
2023-05-30T10:04:17.426Z,38.89
2023-05-30T10:06:47.246Z,38.69
2023-05-30T10:09:14.402Z,39.15
2023-05-30T10:11:43.369Z,38.72
2023-05-30T10:14:11.616Z,37.75
2023-05-30T10:16:54.479Z,37.97
2023-05-30T10:19:36.303Z,37.02
2023-05-30T10:22:08.044Z,37.24
2023-05-30T10:24:39.031Z,36.91
2023-05-30T10:27:12.429Z,36.84
2023-05-30T10:29:49.139Z,36.57
2023-05-30T10:32:25.616Z,36.13
2023-05-30T10:35:00.548Z,36.06
2023-05-30T10:37:27.832Z,36.42
2023-05-30T10:40:13.861Z,36.75
2023-05-30T10:43:06.693Z,36.73
2023-05-30T10:46:10.240Z,36.71
2023-05-30T10:48:51.624Z,36.88
2023-05-30T10:51:21.342Z,36.72
2023-05-30T10:53:51.612Z,36.55
2023-05-30T10:56:27.606Z,37.02
2023-05-30T10:58:54.924Z,37.29
2023-05-30T11:01:36.113Z,36.53
2023-05-30T11:04:07.667Z,37.03
2023-05-30T11:06:45.812Z,36.67
2023-05-30T11:09:19.434Z,36.24
2023-05-30T11:11:48.509Z,36.28
2023-05-30T11:14:16.414Z,36.61
2023-05-30T11:16:55.947Z,36.58
2023-05-30T11:19:27.999Z,36.34
2023-05-30T11:22:02.386Z,35.79
2023-05-30T11:24:31.459Z,35.02
2023-05-30T11:27:06.747Z,35.08
2023-05-30T11:29:45.097Z,35.39
2023-05-30T11:32:13.149Z,34.09
2023-05-30T11:34:39.889Z,33.91
2023-05-30T11:37:07.227Z,33.30
2023-05-30T11:39:37.930Z,33.13
2023-05-30T11:42:06.762Z,33.00
2023-05-30T11:44:33.528Z,31.65
2023-05-30T11:47:31.578Z,30.21
2023-05-30T11:50:00.134Z,30.63
2023-05-30T11:52:26.861Z,30.59
2023-05-30T11:55:00.110Z,30.08
2023-05-30T11:57:28.228Z,29.86
2023-05-30T11:59:55.760Z,30.00
2023-05-30T12:02:33.658Z,30.00
2023-05-30T12:05:03.189Z,29.65
2023-05-30T12:07:36.061Z,29.26
2023-05-30T12:10:03.249Z,29.30
2023-05-30T12:12:32.228Z,29.25
2023-05-30T12:15:00.303Z,29.30
2023-05-30T12:17:27.602Z,29.50
2023-05-30T12:20:07.795Z,28.59
2023-05-30T12:22:34.646Z,28.24
2023-05-30T12:25:10.556Z,27.26
2023-05-30T12:27:43.300Z,26.31
2023-05-30T12:30:19.813Z,26.73
2023-05-30T12:32:46.910Z,27.33
2023-05-30T12:35:14.841Z,27.19
2023-05-30T12:37:41.724Z,28.18
2023-05-30T12:40:09.061Z,29.01
2023-05-30T12:42:39.070Z,29.01
2023-05-30T12:45:08.265Z,29.58
2023-05-30T12:47:38.925Z,29.87
2023-05-30T12:50:07.361Z,29.31
2023-05-30T12:52:34.087Z,29.31
2023-05-30T12:55:00.784Z,29.49
2023-05-30T12:57:27.724Z,29.02
2023-05-30T12:59:55.897Z,29.27
2023-05-30T13:02:26.201Z,28.19
2023-05-30T13:04:54.283Z,27.21
2023-05-30T13:07:21.655Z,27.53
2023-05-30T13:09:48.773Z,27.33
2023-05-30T13:12:16.079Z,27.10
2023-05-30T13:14:45.145Z,26.84
2023-05-30T13:17:12.532Z,26.40
2023-05-30T13:19:39.520Z,25.72
2023-05-30T13:22:08.993Z,25.39
2023-05-30T13:24:36.330Z,25.36
2023-05-30T13:27:03.185Z,25.85
2023-05-30T13:29:29.876Z,27.39
2023-05-30T13:31:56.597Z,28.80
2023-05-30T13:34:23.411Z,29.45
2023-05-30T13:36:50.279Z,28.00
2023-05-30T13:39:16.973Z,27.78
2023-05-30T13:41:43.690Z,26.87
2023-05-30T13:44:10.341Z,27.99
2023-05-30T13:49:07.233Z,30.02
2023-05-30T13:51:35.034Z,28.53
2023-05-30T13:54:05.455Z,29.13
2023-05-30T13:56:32.373Z,28.97
2023-05-30T13:58:59.721Z,28.12
2023-05-30T14:01:32.631Z,29.02
2023-05-30T14:04:01.075Z,29.73
2023-05-30T14:06:28.245Z,28.87
2023-05-30T14:08:55.433Z,29.17
2023-05-30T14:11:22.913Z,28.16
2023-05-30T14:13:50.544Z,28.35
2023-05-30T14:16:17.669Z,27.29
2023-05-30T14:18:47.820Z,27.12
2023-05-30T14:21:15.184Z,27.92
2023-05-30T14:23:41.833Z,27.40
2023-05-30T14:26:08.566Z,27.04
2023-05-30T14:28:35.273Z,26.32
2023-05-30T14:31:02.379Z,25.85
2023-05-30T14:33:29.419Z,26.51
2023-05-30T14:35:56.194Z,26.96
2023-05-30T14:38:23.605Z,28.45
2023-05-30T14:40:50.531Z,27.88
2023-05-30T14:43:17.613Z,28.03
2023-05-30T14:45:44.416Z,28.09
2023-05-30T14:48:12.626Z,28.71
2023-05-30T14:50:39.301Z,27.24
2023-05-30T14:53:32.646Z,27.35
2023-05-30T14:55:59.617Z,26.39
2023-05-30T14:58:26.966Z,26.55
2023-05-30T15:00:53.695Z,26.66
2023-05-30T15:03:21.989Z,26.23
2023-05-30T15:05:48.677Z,26.30
2023-05-30T15:08:15.246Z,26.07
2023-05-30T15:10:43.099Z,25.93
2023-05-30T15:13:09.949Z,25.95
2023-05-30T15:15:36.581Z,25.21
2023-05-30T15:18:03.313Z,24.94
2023-05-30T15:20:30.082Z,24.36
2023-05-30T15:22:56.677Z,23.73
2023-05-30T15:25:23.180Z,23.31
2023-05-30T15:27:51.227Z,23.96
2023-05-30T15:30:18.001Z,23.11
2023-05-30T15:32:44.552Z,23.57
2023-05-30T15:35:11.110Z,22.89
2023-05-30T15:37:37.633Z,24.33
2023-05-30T15:40:09.404Z,23.29
2023-05-30T15:42:35.985Z,24.23
2023-05-30T15:45:02.567Z,23.34
2023-05-30T15:47:29.270Z,25.32
2023-05-30T15:49:56.667Z,25.78
2023-05-30T15:52:23.402Z,25.60
2023-05-30T15:54:50.877Z,25.84
2023-05-30T15:57:17.431Z,26.56
2023-05-30T15:59:44.061Z,27.17
2023-05-30T16:02:10.630Z,28.00
2023-05-30T16:04:38.090Z,32.26
2023-05-30T16:07:05.140Z,35.17
2023-05-30T16:09:31.965Z,35.58
2023-05-30T16:11:58.628Z,34.28
2023-05-30T16:14:28.531Z,30.27
2023-05-30T16:16:55.485Z,28.82
2023-05-30T16:19:22.380Z,29.73
2023-05-30T16:21:49.254Z,32.35
2023-05-30T16:24:16.064Z,30.06
2023-05-30T16:26:42.736Z,29.53
2023-05-30T16:29:09.470Z,29.79
2023-05-30T16:31:36.348Z,30.64
2023-05-30T16:34:03.320Z,31.58
2023-05-30T16:36:30.291Z,32.39
2023-05-30T16:38:56.893Z,31.69
2023-05-30T16:41:23.707Z,32.01
2023-05-30T16:43:50.899Z,32.91
2023-05-30T16:46:17.719Z,33.69
2023-05-30T16:48:44.411Z,33.32
2023-05-30T16:51:11.226Z,33.55
2023-05-30T16:53:38.090Z,34.99
2023-05-30T16:56:16.693Z,37.13
2023-05-30T16:58:45.483Z,38.12
2023-05-30T17:01:12.308Z,38.70
2023-05-30T17:03:41.526Z,39.15
2023-05-30T17:06:08.902Z,39.92
2023-05-30T17:08:38.842Z,40.25
2023-05-30T17:11:05.682Z,41.35
2023-05-30T17:13:32.406Z,41.74
2023-05-30T17:15:59.108Z,41.45
2023-05-30T17:18:28.595Z,41.36
2023-05-30T17:20:56.434Z,41.45
2023-05-30T17:23:24.470Z,41.91
2023-05-30T17:26:02.069Z,41.70
2023-05-30T17:28:32.592Z,40.85
2023-05-30T17:30:59.568Z,41.04
2023-05-30T17:33:29.146Z,40.65
2023-05-30T17:35:56.932Z,40.95
2023-05-30T17:38:23.652Z,41.34
2023-05-30T17:40:50.612Z,41.17
2023-05-30T17:43:22.051Z,41.24
2023-05-30T17:45:48.771Z,41.49
2023-05-30T17:48:15.506Z,42.52
2023-05-30T17:50:45.221Z,42.66
2023-05-30T17:53:11.899Z,42.75
2023-05-30T17:55:38.770Z,43.63
2023-05-30T17:58:05.417Z,43.85
2023-05-30T18:00:34.577Z,44.25
2023-05-30T18:03:02.788Z,44.07
2023-05-30T18:05:29.587Z,45.08
2023-05-30T18:07:56.271Z,46.87
2023-05-30T18:10:22.927Z,47.76
2023-05-30T18:12:49.558Z,47.94
2023-05-30T18:15:16.328Z,48.31
2023-05-30T18:17:43.017Z,48.59
2023-05-30T18:20:10.265Z,48.69
2023-05-30T18:22:37.004Z,49.45
2023-05-30T18:25:03.984Z,49.17
2023-05-30T18:27:30.724Z,49.58
2023-05-30T18:29:57.518Z,49.22
2023-05-30T18:32:24.318Z,49.86
2023-05-30T18:34:51.122Z,49.65
2023-05-30T18:37:17.805Z,50.10
2023-05-30T18:39:44.724Z,49.95
2023-05-30T18:42:12.721Z,50.42
2023-05-30T18:44:39.405Z,50.57
2023-05-30T18:47:06.443Z,50.62
2023-05-30T18:49:33.324Z,51.15
2023-05-30T18:52:00.048Z,51.46
2023-05-30T18:54:26.741Z,51.68
2023-05-30T18:56:53.560Z,51.66
2023-05-30T18:59:20.375Z,51.51
2023-05-30T19:01:47.137Z,51.14
2023-05-30T19:04:14.498Z,50.98
2023-05-30T19:06:41.211Z,51.31
2023-05-30T19:09:07.931Z,50.74
2023-05-30T19:11:34.617Z,50.67
2023-05-30T19:14:01.710Z,50.58
2023-05-30T19:16:29.119Z,50.58
2023-05-30T19:18:55.779Z,50.87
2023-05-30T19:21:22.497Z,50.82
2023-05-30T19:23:49.126Z,51.72
2023-05-30T19:26:18.340Z,52.57
2023-05-30T19:28:46.354Z,52.37
2023-05-30T19:31:15.391Z,52.62
2023-05-30T19:33:43.163Z,52.60
2023-05-30T19:36:10.784Z,52.91
2023-05-30T19:38:37.957Z,53.20
2023-05-30T19:41:07.424Z,53.08
2023-05-30T19:43:34.945Z,52.60
2023-05-30T19:46:01.956Z,53.21
2023-05-30T19:48:28.698Z,53.85
2023-05-30T19:50:56.206Z,53.90
2023-05-30T19:53:23.086Z,53.55
2023-05-30T19:55:49.758Z,54.13
2023-05-30T19:58:22.330Z,54.27
2023-05-30T20:00:49.326Z,53.88
2023-05-30T20:03:16.545Z,54.17
2023-05-30T20:05:43.457Z,54.64
2023-05-30T20:08:10.554Z,54.35
2023-05-30T20:10:37.511Z,54.80
2023-05-30T20:13:04.652Z,54.72
2023-05-30T20:15:31.731Z,54.83
2023-05-30T20:18:02.428Z,55.13
2023-05-30T20:20:30.020Z,54.63
2023-05-30T20:22:57.769Z,55.45
2023-05-30T20:25:24.695Z,56.06
2023-05-30T20:27:51.709Z,56.07
2023-05-30T20:30:18.724Z,56.50
2023-05-30T20:32:46.481Z,56.36
2023-05-30T20:35:13.266Z,56.58
2023-05-30T20:37:40.022Z,56.79
2023-05-30T20:40:07.299Z,56.47
2023-05-30T20:42:34.418Z,56.48
2023-05-30T20:45:01.237Z,56.49
2023-05-30T20:47:28.499Z,56.84
2023-05-30T20:49:55.295Z,57.06
2023-05-30T20:52:21.973Z,57.91
2023-05-30T20:54:48.604Z,57.82
2023-05-30T20:57:22.938Z,57.89
2023-05-30T20:59:49.680Z,58.27
2023-05-30T21:02:16.564Z,58.33
2023-05-30T21:04:43.973Z,58.54
2023-05-30T21:07:10.912Z,58.62
2023-05-30T21:09:37.680Z,58.52
2023-05-30T21:12:04.834Z,58.84
2023-05-30T21:14:31.620Z,58.67
2023-05-30T21:16:58.262Z,58.81
2023-05-30T21:19:24.944Z,59.14
2023-05-30T21:21:51.597Z,59.61
2023-05-30T21:24:18.325Z,60.06
2023-05-30T21:26:44.963Z,60.57
2023-05-30T21:29:11.812Z,60.54
2023-05-30T21:31:38.641Z,60.83
2023-05-30T21:34:06.205Z,100.00
2023-05-30T21:36:32.952Z,100.00
2023-05-30T21:38:59.596Z,100.00
2023-05-30T21:41:26.827Z,61.79
2023-05-30T21:43:53.586Z,61.98
2023-05-30T21:46:20.298Z,62.79
2023-05-30T21:48:47.062Z,62.88
2023-05-30T21:51:14.033Z,62.89
2023-05-30T21:53:40.793Z,62.84
2023-05-30T21:56:08.093Z,63.31
2023-05-30T21:58:34.860Z,63.33
2023-05-30T22:01:02.005Z,63.95
2023-05-30T22:03:31.238Z,64.13
2023-05-30T22:05:58.884Z,63.95
2023-05-30T22:08:25.609Z,64.12
2023-05-30T22:10:52.947Z,64.14
2023-05-30T22:13:19.878Z,63.85
2023-05-30T22:15:46.535Z,64.09
2023-05-30T22:18:13.381Z,65.17
2023-05-30T22:20:40.186Z,65.32
2023-05-30T22:23:06.935Z,65.70
2023-05-30T22:25:33.614Z,66.17
2023-05-30T22:28:00.541Z,66.19
2023-05-30T22:30:27.273Z,66.19
2023-05-30T22:32:54.009Z,66.33
2023-05-30T22:35:20.827Z,66.11
2023-05-30T22:37:50.217Z,65.84
2023-05-30T22:40:17.306Z,66.11
2023-05-30T22:42:43.980Z,66.11
2023-05-30T22:45:10.871Z,66.85
2023-05-30T22:47:37.559Z,67.32
2023-05-30T22:50:05.053Z,67.33
2023-05-30T22:52:31.862Z,67.05
2023-05-30T22:54:58.473Z,67.43
2023-05-30T22:57:25.190Z,67.55
2023-05-30T22:59:51.826Z,67.45
2023-05-30T23:02:18.647Z,67.01
2023-05-30T23:04:45.610Z,66.61
2023-05-30T23:07:12.252Z,67.13
2023-05-30T23:09:38.912Z,67.50
2023-05-30T23:12:06.437Z,68.02
2023-05-30T23:14:33.032Z,68.78
2023-05-30T23:16:59.630Z,68.40
2023-05-30T23:19:26.276Z,68.52
2023-05-30T23:21:52.943Z,69.98
2023-05-30T23:24:19.684Z,70.51
2023-05-30T23:26:46.312Z,70.19
2023-05-30T23:29:13.048Z,69.95
2023-05-30T23:31:39.959Z,69.10
2023-05-30T23:34:06.531Z,69.35
2023-05-30T23:36:33.184Z,69.16
2023-05-30T23:38:59.773Z,69.17
2023-05-30T23:41:27.061Z,69.61
2023-05-30T23:43:53.914Z,70.07
2023-05-30T23:46:20.581Z,70.22
2023-05-30T23:48:47.238Z,70.00
2023-05-30T23:51:20.424Z,70.07
2023-05-30T23:53:47.094Z,70.48
2023-05-30T23:56:14.014Z,70.39
2023-05-30T23:58:40.813Z,70.57
